• Join FlightAware (Why Join?)
  • Login
  • US Flag 
05:45AM EST


 

Airport Tracker/Info


-or-


 

Live Flight TrackerFlight Track Log ✈ UAL3272 ✈ 14-Apr-2013 ✈ KMCI - KCLE

Flight Track Log - Related Links

Times and Time Zones

All times are in EDT time to prevent confusion due to time zone crossing. See the UAL3272 flight status page for this flight to view local times or setup timezone preferences in your user account.

Time Position Orientation Groundspeed Altitude Reporting Facility
EDT Latitude Longitude Course Direction KTS MPH feet Rate Location/Type
09:25AM 39.3000 -94.7333 191° South 164 189 1,600  Level Kansas City TRACON
09:26AM 39.2572 -94.7436 191° South 179 206 3,400 2,160 Climbing Kansas City Center
09:27AM 39.2039 -94.7367 174° South 221 254 5,500 2,520 Climbing Kansas City Center
09:28AM 39.1894 -94.6456 102° East 294 338 8,600 2,580 Climbing Kansas City Center
09:29AM 39.2514 -94.5514 50° Northeast 334 384 10,900 1,560 Climbing Kansas City Center
09:30AM 39.3333 -94.4853 32° Northeast 365 420 11,900 1,320 Climbing Kansas City Center
09:31AM 39.4383 -94.4006 32° Northeast 402 463 13,600 1,560 Climbing Kansas City Center
09:32AM 39.5294 -94.3261 32° Northeast 406 467 15,100 1,440 Climbing Kansas City Center
09:33AM 39.6208 -94.2497 33° Northeast 407 468 16,600 1,740 Climbing Kansas City Center
09:34AM 39.7297 -94.1569 33° Northeast 415 478 18,700 1,620 Climbing Kansas City Center
09:35AM 39.8258 -94.0758 33° Northeast 417 480 19,900 1,080 Climbing Kansas City Center
09:36AM 39.9211 -93.9822 37° Northeast 431 496 21,000 1,020 Climbing Kansas City Center
09:37AM 39.9689 -93.8358 67° East 443 510 22,000 960 Climbing Kansas City Center
09:38AM 40.0128 -93.6867 69° East 443 510 23,000 1,020 Climbing Kansas City Center
09:39AM 40.0603 -93.5367 67° East 449 517 24,100 1,020 Climbing Kansas City Center
09:40AM 40.1089 -93.3850 67° East 454 522 25,100 1,080 Climbing Kansas City Center
09:41AM 40.1650 -93.2022 68° East 454 522 26,400 1,080 Climbing Kansas City Center
09:42AM 40.2044 -93.0478 71° East 451 519 27,400 960 Climbing Kansas City Center
09:43AM 40.2456 -92.9033 70° East 448 516 28,400 1,020 Climbing Kansas City Center
09:44AM 40.2908 -92.7306 71° East 446 513 29,600 960 Climbing Kansas City Center
09:45AM 40.3242 -92.6094 70° East 444 511 30,400 960 Climbing Kansas City Center
09:46AM 40.3675 -92.4381 72° East 450 518 31,600 1,080 Climbing Kansas City Center
09:47AM 40.4122 -92.2656 71° East 453 521 32,700 1,020 Climbing Kansas City Center
09:48AM 40.4525 -92.1103 71° East 453 521 33,800 1,020 Climbing Kansas City Center
09:49AM 40.4914 -91.9556 72° East 451 519 34,800 600 Climbing Kansas City Center
09:50AM 40.5311 -91.7997 71° East 451 519 35,100 540 Climbing Kansas City Center
09:51AM 40.5717 -91.6414 71° East 458 527 36,000 960 Climbing Kansas City Center
09:51AM 40.5878 -91.5783 71° East 459 528 36,400 780 Climbing Chicago Center
09:52AM 40.6275 -91.4228 71° East 453 521 37,000 240 Climbing Chicago Center
09:53AM 40.6628 -91.2722 73° East 457 526 37,000  Level Chicago Center
09:54AM 40.7125 -91.0747 72° East 470 541 37,000  Level Chicago Center
09:55AM 40.7544 -90.9078 72° East 477 549 37,000  Level Chicago Center
09:56AM 40.7967 -90.7361 72° East 489 563 37,000  Level Chicago Center
09:57AM 40.8369 -90.5661 73° East 487 560 37,000  Level Chicago Center
09:59AM 40.8794 -90.3919 72° East 495 570 37,000  Level Chicago Center
10:00AM 40.9244 -90.2017 73° East 492 566 37,000  Level Chicago Center
10:01AM 40.9653 -90.0286 73° East 496 571 37,000  Level Chicago Center
10:02AM 41.0033 -89.8672 73° East 490 564 37,000  Level Chicago Center
10:03AM 41.0436 -89.6931 73° East 489 563 37,000  Level Chicago Center
10:04AM 41.0839 -89.5189 73° East 491 565 37,000  Level Chicago Center
10:05AM 41.1239 -89.3444 73° East 493 567 37,000  Level Chicago Center
10:06AM 41.1642 -89.1683 73° East 494 568 37,000  Level Chicago Center
10:07AM 41.2094 -88.9608 74° East 491 565 37,000 -60 Level Chicago Center
10:08AM 41.2486 -88.7878 73° East 490 564 36,900 -540 Descending Chicago Center
10:09AM 41.2867 -88.6178 73° East 487 560 36,000 -960 Descending Chicago Center
10:10AM 41.3233 -88.4481 74° East 482 555 35,000 -540 Descending Chicago Center
10:11AM 41.3622 -88.2747 73° East 489 563 34,900 -660 Descending Chicago Center
10:12AM 41.4017 -88.0953 74° East 493 567 33,700 -960 Descending Chicago Center
10:13AM 41.4389 -87.9258 74° East 482 555 33,000 -360 Descending Chicago Center
10:14AM 41.4767 -87.7433 74° East 481 554 33,000  Level Chicago Center
10:15AM 41.5136 -87.5681 74° East 492 566 33,000  Level Chicago Center
10:16AM 41.5492 -87.3931 75° East 491 565 33,000  Level Chicago Center
10:17AM 41.5875 -87.2119 74° East 503 579 33,000  Level Chicago Center
10:18AM 41.6308 -86.9978 75° East 500 575 33,000  Level Chicago Center
10:19AM 41.6683 -86.8206 74° East 495 570 33,000  Level Chicago Center
10:20AM 41.6997 -86.6658 75° East 495 570 33,000  Level Chicago Center
10:21AM 41.7411 -86.4528 75° East 494 568 33,000  Level Chicago Center
10:22AM 41.7728 -86.2747 77° East 491 565 33,000  Level Chicago Center
10:23AM 41.7917 -86.0942 82° East 490 564 33,000  Level Chicago Center
10:24AM 41.8100 -85.9100 82° East 496 571 33,000 -300 Level Chicago Center
10:25AM 41.8294 -85.7278 82° East 492 566 32,400 -840 Descending Chicago Center
10:26AM 41.8478 -85.5436 82° East 492 566 31,400 -720 Descending Chicago Center
10:27AM 41.8647 -85.3581 83° East 493 567 31,000 -240 Descending Chicago Center
10:28AM 41.8839 -85.1725 82° East 496 571 31,000  Level Chicago Center
10:28AM 41.8908 -85.1278 78° East 495 570 31,000  Level Cleveland Center
10:29AM 41.9083 -84.9419 83° East 495 570 31,000  Level Cleveland Center
10:30AM 41.9256 -84.7589 83° East 495 570 31,000  Level Cleveland Center
10:31AM 41.9447 -84.5756 82° East 495 570 31,000  Level Cleveland Center
10:32AM 41.9633 -84.3953 82° East 495 570 31,000 -120 Level Cleveland Center
10:33AM 41.9781 -84.1950 84° East 495 570 30,800 -600 Descending Cleveland Center
10:34AM 41.9964 -84.0117 82° East 495 570 29,800 -1,020 Descending Cleveland Center
10:35AM 42.0122 -83.8250 83° East 495 570 28,800 -1,020 Descending Cleveland Center
10:36AM 42.0300 -83.6331 83° East 502 578 27,800 -1,080 Descending Cleveland Center
10:37AM 42.0425 -83.4631 84° East 508 585 26,700 -1,500 Descending Cleveland Center
10:38AM 42.0286 -83.2722 96° East 513 590 24,900 -2,040 Descending Cleveland Center
10:39AM 42.0097 -83.0900 98° East 508 585 22,700 -2,400 Descending Cleveland Center
10:40AM 41.9925 -82.9103 97° East 495 570 20,200 -2,760 Descending Cleveland Center
10:41AM 41.9803 -82.7925 98° East 478 550 18,400 -2,520 Descending Cleveland Center
10:41AM 41.9753 -82.7367 97° East 481 554 17,700 -2,520 Descending Cleveland Center
10:42AM 41.9644 -82.6411 99° East 451 519 16,100 -2,640 Descending Cleveland Center
10:42AM 41.9572 -82.5714 98° East 460 529 15,100 -2,280 Descending Cleveland Center
10:43AM 41.9339 -82.4811 109° East 427 491 13,800 -2,220 Descending Cleveland Center
10:43AM 41.9161 -82.4219 112° Southeast 431 496 12,900 -2,100 Descending Cleveland Center
10:44AM 41.8722 -82.2814 113° Southeast 420 483 10,700 -1,860 Descending Cleveland Center
10:45AM 41.8444 -82.1997 115° Southeast 391 450 10,100 -720 Descending Cleveland Center
10:45AM 41.8261 -82.1547 119° Southeast 395 455 10,000 -120 Descending Cleveland Center
10:46AM 41.7872 -82.1175 144° Southeast 315 362 10,000  Level Cleveland Center
10:46AM 41.7481 -82.0694 138° Southeast 345 397 10,000 -720 Level Cleveland Center
10:47AM 41.7111 -82.0183 134° Southeast 326 375 9,200 -1,440 Descending Cleveland Center
10:47AM 41.6950 -81.9764 117° Southeast 323 372 8,600 -1,500 Descending Cleveland Center
10:48AM 41.6708 -81.9175 119° Southeast 321 369 7,700 -1,500 Descending Cleveland Center
10:48AM 41.6483 -81.8781 127° Southeast 317 365 7,100 -1,800 Descending Cleveland Center
10:49AM 41.6197 -81.8303 129° Southeast 278 320 5,900 -1,920 Descending Cleveland Center
10:49AM 41.6011 -81.7967 127° Southeast 297 342 5,200 -1,620 Descending Cleveland Center
10:50AM 41.5683 -81.7600 140° Southeast 254 292 4,300 -1,200 Descending Cleveland Center
10:50AM 41.5456 -81.7372 143° Southeast 260 299 4,000 -780 Descending Cleveland Center
10:51AM 41.5081 -81.7283 170° South 194 223 3,500 -840 Descending Cleveland Center
10:52AM 41.4725 -81.7608 214° Southwest 179 206 2,700 -900 Descending Cleveland Center
10:53AM 41.4428 -81.8047 228° Southwest 132 152 1,700 -840 Descending Cleveland Center
10:54AM 41.4194 -81.8403 229° Southwest 140 161 1,100 -720 Descending Cleveland Center
10:56AM 41.4000 -81.8500 194° South  Level FlightAware Approximate